Corinthiakos — A8UL2 — position and weather

sailwx.info

Track history (hours):
 
Tides and Currents Weather Stations Pressure Air Temp Water Temp Dewpoint Dewpoint Depression Visibility Wind Speed Wind Dir Waves Ship Positions

Corinthiakos

Last reported at 2017-Nov-19 15:58 UTC. Time now 2017-Nov-19 16:07 UTC.
Position N 22°31' E 120°15'.

Length 262 m; draft 10.3 m.

Type: Ship (hazmat cat C). MMSI: 636014516.

Date/timePositionNaut miles runAvg speedWind from/ knotsBaromVisibWave heightAir tempDewpointWater temp
2017-Nov-19 15:58N 22°31' E 120°15'0 0.0
2017-Nov-19 15:28N 22°31' E 120°15'0 0.0
2017-Nov-19 14:58N 22°31' E 120°15'0 0.1
2017-Nov-19 14:28N 22°31' E 120°16'0 0.2
2017-Nov-19 13:58N 22°31' E 120°16'0 0.2
2017-Nov-19 13:28N 22°31' E 120°16'0 0.2
2017-Nov-19 12:59N 22°31' E 120°15'2 4.2
2017-Nov-19 12:30N 22°30' E 120°14'612.8
2017-Nov-19 12:00N 22°27' E 120°08'612.8
2017-Nov-19 11:30N 22°23' E 120°02'612.6
2017-Nov-19 11:00N 22°18' E 119°58'  
2017-Nov-15 22:11N 01°24' E 104°27'420.8
2017-Nov-15 21:59N 01°21' E 104°24'1120.0
2017-Nov-15 21:26N 01°16' E 104°14'921.1
2017-Nov-15 21:00N 01°15' E 104°05'919.0
2017-Nov-15 20:30N 01°13' E 103°55'5 9.4
2017-Nov-15 20:00N 01°15' E 103°51'1 2.5
2017-Nov-15 19:30N 01°16' E 103°50'0 0.0
2017-Nov-15 18:57N 01°16' E 103°50'0 0.0
2017-Nov-15 18:27N 01°16' E 103°50'0 0.0
2017-Nov-15 18:00N 01°16' E 103°50'0 0.0
2017-Nov-15 17:27N 01°16' E 103°50'0 0.0
2017-Nov-15 16:57N 01°16' E 103°50'0 0.0
2017-Nov-15 16:27N 01°16' E 103°50'0 0.0
2017-Nov-15 16:00N 01°16' E 103°50'0 0.0
2017-Nov-15 15:30N 01°16' E 103°50'0 0.0
2017-Nov-15 15:00N 01°16' E 103°50'0 0.0
2017-Nov-15 14:30N 01°16' E 103°50'0 0.0
2017-Nov-15 14:00N 01°16' E 103°50'0 0.0
2017-Nov-15 13:30N 01°16' E 103°50'0 0.0
2017-Nov-15 13:00N 01°16' E 103°50'0 0.0
2017-Nov-15 12:30N 01°16' E 103°50'0 0.0
2017-Nov-15 11:57N 01°16' E 103°50'0 0.0
2017-Nov-15 11:30N 01°16' E 103°50'0 0.0
2017-Nov-15 10:57N 01°16' E 103°50'0 0.0
2017-Nov-15 10:21N 01°16' E 103°50'0 0.0
2017-Nov-15 09:57N 01°16' E 103°50'0 0.0
2017-Nov-15 09:27N 01°16' E 103°50'0 0.0
2017-Nov-15 08:57N 01°16' E 103°50'0 0.0
2017-Nov-15 08:27N 01°16' E 103°50'0 0.0
2017-Nov-15 07:57N 01°16' E 103°50'0 0.0
2017-Nov-15 07:30N 01°16' E 103°50'0 0.0
2017-Nov-15 06:57N 01°16' E 103°50'0 0.0
2017-Nov-15 06:30N 01°16' E 103°50'0 0.0
2017-Nov-15 06:00N 01°16' E 103°50'0 0.0
2017-Nov-15 05:30N 01°16' E 103°50'0 0.0
2017-Nov-15 05:00N 01°16' E 103°50'0 0.0
2017-Nov-15 04:30N 01°16' E 103°50'0 0.0
2017-Nov-15 04:00N 01°16' E 103°50'0 0.0
2017-Nov-15 03:30N 01°16' E 103°50'0 0.0
2017-Nov-15 03:00N 01°16' E 103°50'0 0.0
2017-Nov-15 02:30N 01°16' E 103°50'0 0.0
2017-Nov-15 02:00N 01°16' E 103°50'0 0.0
2017-Nov-15 01:30N 01°16' E 103°50'0 0.0
2017-Nov-15 01:00N 01°16' E 103°50'0 0.0
2017-Nov-15 00:30N 01°16' E 103°50'0 0.0
2017-Nov-15 00:00N 01°16' E 103°50'0 0.0
2017-Nov-14 23:30N 01°16' E 103°50'0 0.0
2017-Nov-14 22:57N 01°16' E 103°50'0 0.1
2017-Nov-14 22:30N 01°16' E 103°50'2 3.1
2017-Nov-14 22:00N 01°15' E 103°51'2 4.5
2017-Nov-14 21:30N 01°14' E 103°53'2 3.5
2017-Nov-14 21:00N 01°12' E 103°53'2 4.5
2017-Nov-14 20:30N 01°11' E 103°51'3 6.9
2017-Nov-14 20:00N 01°09' E 103°48'4 7.5
2017-Nov-14 19:30N 01°07' E 103°45'3 6.7
2017-Nov-14 19:01N 01°04' E 103°43'0 0.7
2017-Nov-14 18:30N 01°04' E 103°43'1 1.7
2017-Nov-14 18:01N 01°04' E 103°42'0 0.8
2017-Nov-14 17:31N 01°04' E 103°42'3 6.1
2017-Nov-14 17:00N 01°03' E 103°39'612.3
2017-Nov-14 16:30N 01°06' E 103°33'612.5
2017-Nov-14 16:01N 01°09' E 103°28'612.3
2017-Nov-14 15:29N 01°13' E 103°23'612.6
2017-Nov-14 14:58N 01°17' E 103°18'  
Track history (hours):
 
Tides and Currents Weather Stations Pressure Air Temp Water Temp Dewpoint Dewpoint Depression Visibility Wind Speed Wind Dir Waves Ship Positions

Corinthiakos

Last reported at 2017-Nov-19 15:58 UTC. Time now 2017-Nov-19 16:07 UTC.
Position N 22°31' E 120°15'.

Length 262 m; draft 10.3 m.

Type: Ship (hazmat cat C). MMSI: 636014516.

Date/timePositionNaut miles runAvg speedWind from/ knotsBaromVisibWave heightAir tempDewpointWater temp
2017-Nov-19 15:58N 22°31' E 120°15'0 0.0
2017-Nov-19 15:28N 22°31' E 120°15'0 0.0
2017-Nov-19 14:58N 22°31' E 120°15'0 0.1
2017-Nov-19 14:28N 22°31' E 120°16'0 0.2
2017-Nov-19 13:58N 22°31' E 120°16'0 0.2
2017-Nov-19 13:28N 22°31' E 120°16'0 0.2
2017-Nov-19 12:59N 22°31' E 120°15'2 4.2
2017-Nov-19 12:30N 22°30' E 120°14'612.8
2017-Nov-19 12:00N 22°27' E 120°08'612.8
2017-Nov-19 11:30N 22°23' E 120°02'612.6
2017-Nov-19 11:00N 22°18' E 119°58'  
2017-Nov-15 22:11N 01°24' E 104°27'420.8
2017-Nov-15 21:59N 01°21' E 104°24'1120.0
2017-Nov-15 21:26N 01°16' E 104°14'921.1
2017-Nov-15 21:00N 01°15' E 104°05'919.0
2017-Nov-15 20:30N 01°13' E 103°55'5 9.4
2017-Nov-15 20:00N 01°15' E 103°51'1 2.5
2017-Nov-15 19:30N 01°16' E 103°50'0 0.0
2017-Nov-15 18:57N 01°16' E 103°50'0 0.0
2017-Nov-15 18:27N 01°16' E 103°50'0 0.0
2017-Nov-15 18:00N 01°16' E 103°50'0 0.0
2017-Nov-15 17:27N 01°16' E 103°50'0 0.0
2017-Nov-15 16:57N 01°16' E 103°50'0 0.0
2017-Nov-15 16:27N 01°16' E 103°50'0 0.0
2017-Nov-15 16:00N 01°16' E 103°50'0 0.0
2017-Nov-15 15:30N 01°16' E 103°50'0 0.0
2017-Nov-15 15:00N 01°16' E 103°50'0 0.0
2017-Nov-15 14:30N 01°16' E 103°50'0 0.0
2017-Nov-15 14:00N 01°16' E 103°50'0 0.0
2017-Nov-15 13:30N 01°16' E 103°50'0 0.0
2017-Nov-15 13:00N 01°16' E 103°50'0 0.0
2017-Nov-15 12:30N 01°16' E 103°50'0 0.0
2017-Nov-15 11:57N 01°16' E 103°50'0 0.0
2017-Nov-15 11:30N 01°16' E 103°50'0 0.0
2017-Nov-15 10:57N 01°16' E 103°50'0 0.0
2017-Nov-15 10:21N 01°16' E 103°50'0 0.0
2017-Nov-15 09:57N 01°16' E 103°50'0 0.0
2017-Nov-15 09:27N 01°16' E 103°50'0 0.0
2017-Nov-15 08:57N 01°16' E 103°50'0 0.0
2017-Nov-15 08:27N 01°16' E 103°50'0 0.0
2017-Nov-15 07:57N 01°16' E 103°50'0 0.0
2017-Nov-15 07:30N 01°16' E 103°50'0 0.0
2017-Nov-15 06:57N 01°16' E 103°50'0 0.0
2017-Nov-15 06:30N 01°16' E 103°50'0 0.0
2017-Nov-15 06:00N 01°16' E 103°50'0 0.0
2017-Nov-15 05:30N 01°16' E 103°50'0 0.0
2017-Nov-15 05:00N 01°16' E 103°50'0 0.0
2017-Nov-15 04:30N 01°16' E 103°50'0 0.0
2017-Nov-15 04:00N 01°16' E 103°50'0 0.0
2017-Nov-15 03:30N 01°16' E 103°50'0 0.0
2017-Nov-15 03:00N 01°16' E 103°50'0 0.0
2017-Nov-15 02:30N 01°16' E 103°50'0 0.0
2017-Nov-15 02:00N 01°16' E 103°50'0 0.0
2017-Nov-15 01:30N 01°16' E 103°50'0 0.0
2017-Nov-15 01:00N 01°16' E 103°50'0 0.0
2017-Nov-15 00:30N 01°16' E 103°50'0 0.0
2017-Nov-15 00:00N 01°16' E 103°50'0 0.0
2017-Nov-14 23:30N 01°16' E 103°50'0 0.0
2017-Nov-14 22:57N 01°16' E 103°50'0 0.1
2017-Nov-14 22:30N 01°16' E 103°50'2 3.1
2017-Nov-14 22:00N 01°15' E 103°51'2 4.5
2017-Nov-14 21:30N 01°14' E 103°53'2 3.5
2017-Nov-14 21:00N 01°12' E 103°53'2 4.5
2017-Nov-14 20:30N 01°11' E 103°51'3 6.9
2017-Nov-14 20:00N 01°09' E 103°48'4 7.5
2017-Nov-14 19:30N 01°07' E 103°45'3 6.7
2017-Nov-14 19:01N 01°04' E 103°43'0 0.7
2017-Nov-14 18:30N 01°04' E 103°43'1 1.7
2017-Nov-14 18:01N 01°04' E 103°42'0 0.8
2017-Nov-14 17:31N 01°04' E 103°42'3 6.1
2017-Nov-14 17:00N 01°03' E 103°39'612.3
2017-Nov-14 16:30N 01°06' E 103°33'612.5
2017-Nov-14 16:01N 01°09' E 103°28'612.3
2017-Nov-14 15:29N 01°13' E 103°23'612.6
2017-Nov-14 14:58N 01°17' E 103°18'  

Dump ship's entire track history